Time;durP1;ratioP1;P1;durP2;ratioP2;P2;SDS_P1;SDS_P2;PMS_P1;PMS_P2;Temp;Humidity;BMP_temperature;BMP_pressure;BME280_temperature;BME280_humidity;BME280_pressure;Samples;Min_cycle;Max_cycle;Signal;HPM_P1;HPM_P2
2024/04/05 00:00:40;;;;;;;11.27;3.00;;;12.50;99.90;;;;;;5035434;28;20307;-72
2024/04/05 00:03:05;;;;;;;12.00;3.50;;;12.50;99.90;;;;;;5034941;28;20182;-73
2024/04/05 00:05:31;;;;;;;11.90;2.50;;;12.50;99.90;;;;;;5034894;28;20436;-74
2024/04/05 00:07:57;;;;;;;9.27;3.40;;;12.50;99.90;;;;;;5035328;28;20213;-74
2024/04/05 00:10:22;;;;;;;9.23;3.17;;;12.50;99.90;;;;;;5035608;28;20269;-74
2024/04/05 00:12:48;;;;;;;7.63;2.97;;;12.60;99.90;;;;;;5034192;28;20190;-70
2024/04/05 00:15:14;;;;;;;8.63;3.17;;;12.60;99.90;;;;;;5035101;28;20197;-70
2024/04/05 00:17:39;;;;;;;7.77;3.03;;;12.50;99.90;;;;;;5033741;28;20186;-69
2024/04/05 00:20:06;;;;;;;11.97;3.47;;;12.60;99.90;;;;;;5034707;28;20231;-73
2024/04/05 00:22:31;;;;;;;14.07;3.73;;;12.60;99.90;;;;;;5035417;28;20182;-73
2024/04/05 00:24:57;;;;;;;7.50;2.80;;;12.60;99.90;;;;;;5035786;28;20926;-70
2024/04/05 00:27:23;;;;;;;11.77;3.90;;;12.60;99.90;;;;;;5035014;28;20178;-71
2024/04/05 00:29:49;;;;;;;10.30;3.00;;;12.60;99.90;;;;;;5034932;28;20278;-70
2024/04/05 00:32:15;;;;;;;11.23;3.53;;;12.60;99.90;;;;;;5035931;28;20969;-71
2024/04/05 00:34:41;;;;;;;7.67;2.70;;;12.60;99.90;;;;;;5035115;28;20440;-72
2024/04/05 00:37:08;;;;;;;9.80;3.50;;;12.60;99.90;;;;;;5035665;28;20431;-72
2024/04/05 00:39:33;;;;;;;8.20;2.80;;;12.60;99.90;;;;;;5035656;28;20555;-71
2024/04/05 00:41:59;;;;;;;12.00;3.43;;;12.60;99.90;;;;;;5035152;28;20467;-72
2024/04/05 00:44:25;;;;;;;7.10;2.73;;;12.60;99.90;;;;;;5034848;28;20269;-72
2024/04/05 00:46:51;;;;;;;7.63;2.97;;;12.70;99.90;;;;;;5034401;28;20177;-69
2024/04/05 00:49:17;;;;;;;9.93;3.47;;;12.70;99.90;;;;;;5034754;28;20196;-74
2024/04/05 00:51:43;;;;;;;5.80;2.93;;;12.70;99.90;;;;;;5038531;28;20412;-71
2024/04/05 00:54:09;;;;;;;7.33;3.20;;;12.70;99.90;;;;;;5039135;28;20429;-70
2024/04/05 00:56:36;;;;;;;7.07;3.40;;;12.70;99.90;;;;;;5038893;28;20420;-70
2024/04/05 00:59:02;;;;;;;7.00;3.53;;;12.60;99.90;;;;;;5038095;28;20532;-73
2024/04/05 01:01:29;;;;;;;8.70;3.53;;;12.60;99.90;;;;;;5036583;28;20578;-68
2024/04/05 01:03:55;;;;;;;7.30;2.83;;;12.60;99.90;;;;;;5038362;28;20432;-70
2024/04/05 01:06:21;;;;;;;10.63;3.30;;;12.60;99.90;;;;;;5037748;28;20432;-70
2024/04/05 01:08:47;;;;;;;7.53;2.70;;;12.60;99.90;;;;;;5038814;28;20585;-73
2024/04/05 01:11:13;;;;;;;6.13;2.70;;;12.60;99.90;;;;;;5038329;28;20439;-71
2024/04/05 01:13:39;;;;;;;11.43;2.87;;;12.60;99.90;;;;;;5038530;28;20417;-71
2024/04/05 01:16:06;;;;;;;4.47;2.67;;;12.60;99.90;;;;;;5038743;28;20211;-74
2024/04/05 01:18:32;;;;;;;9.60;2.90;;;12.60;99.90;;;;;;5037514;28;20190;-69
2024/04/05 01:20:59;;;;;;;7.10;2.77;;;12.60;99.90;;;;;;5038767;28;20456;-72
2024/04/05 01:23:28;;;;;;;10.90;3.30;;;12.60;99.90;;;;;;5038507;28;20428;-74
2024/04/05 01:25:55;;;;;;;6.20;2.53;;;12.60;99.90;;;;;;5037849;28;20428;-70
2024/04/05 01:28:20;;;;;;;7.00;3.13;;;12.60;99.90;;;;;;5037712;28;20535;-69
2024/04/05 01:30:46;;;;;;;6.57;3.10;;;12.60;99.90;;;;;;5037929;28;20500;-73
2024/04/05 01:33:12;;;;;;;7.40;2.73;;;12.60;99.90;;;;;;5037911;28;20204;-72
2024/04/05 01:35:38;;;;;;;10.00;3.10;;;12.60;99.90;;;;;;5037641;28;20330;-72
2024/04/05 01:38:04;;;;;;;10.30;2.83;;;12.60;99.90;;;;;;5038322;28;20178;-71
2024/04/05 01:40:30;;;;;;;8.40;3.13;;;12.60;99.90;;;;;;5037610;28;20464;-73
2024/04/05 01:42:55;;;;;;;8.17;2.93;;;12.60;99.90;;;;;;5070140;28;20548;-72
2024/04/05 01:45:21;;;;;;;9.00;2.73;;;12.60;99.90;;;;;;5037553;28;20178;-72
2024/04/05 01:47:47;;;;;;;5.67;2.83;;;12.60;99.90;;;;;;5037520;28;20185;-75
2024/04/05 01:50:17;;;;;;;7.93;2.70;;;12.60;99.90;;;;;;5037525;28;20188;-73
2024/04/05 01:52:43;;;;;;;5.07;2.83;;;12.60;99.90;;;;;;5037407;28;21188;-69
2024/04/05 01:55:08;;;;;;;10.90;3.23;;;12.60;99.90;;;;;;5037561;28;20490;-74
2024/04/05 01:57:37;;;;;;;8.63;2.63;;;12.60;99.90;;;;;;5037960;28;20799;-71
2024/04/05 02:00:05;;;;;;;6.80;2.40;;;12.60;99.90;;;;;;5037172;28;20217;-70
2024/04/05 02:02:31;;;;;;;3.60;2.37;;;12.60;99.90;;;;;;5036563;28;20473;-72
2024/04/05 02:04:57;;;;;;;8.10;2.87;;;12.60;99.90;;;;;;5035693;28;20741;-71
2024/04/05 02:07:23;;;;;;;7.87;3.03;;;12.60;99.90;;;;;;5037167;28;20441;-70
2024/04/05 02:09:51;;;;;;;5.83;3.40;;;12.60;99.90;;;;;;5069129;28;20672;-71
2024/04/05 02:12:19;;;;;;;7.53;2.90;;;12.60;99.90;;;;;;5037319;28;20943;-70
2024/04/05 02:14:45;;;;;;;6.40;2.70;;;12.70;99.90;;;;;;5036632;28;20424;-74
2024/04/05 02:17:11;;;;;;;9.67;3.40;;;12.70;99.90;;;;;;5069419;28;20427;-69
2024/04/05 02:19:37;;;;;;;7.50;2.60;;;12.70;99.90;;;;;;5036982;28;20460;-70
2024/04/05 02:22:03;;;;;;;9.00;2.87;;;12.70;99.90;;;;;;5036642;28;20488;-69
2024/04/05 02:24:28;;;;;;;8.00;2.70;;;12.70;99.90;;;;;;5037236;28;20424;-71
2024/04/05 02:26:54;;;;;;;6.67;2.63;;;12.70;99.90;;;;;;5036921;28;20760;-75
2024/04/05 02:29:20;;;;;;;7.37;3.30;;;12.70;99.90;;;;;;5036390;28;20193;-70
2024/04/05 02:31:46;;;;;;;9.20;2.93;;;12.70;99.90;;;;;;5068481;28;20182;-72
2024/04/05 02:34:11;;;;;;;9.20;3.00;;;12.70;99.90;;;;;;5037721;28;20185;-73
2024/04/05 02:36:37;;;;;;;9.80;2.97;;;12.80;99.90;;;;;;5035062;28;20241;-73
2024/04/05 02:39:10;;;;;;;5.53;2.50;;;12.80;99.90;;;;;;5036458;28;20194;-71
2024/04/05 02:41:36;;;;;;;6.80;3.33;;;12.80;99.90;;;;;;5036242;28;20858;-68
2024/04/05 02:44:02;;;;;;;5.50;2.60;;;12.80;99.90;;;;;;5036041;28;20426;-73
2024/04/05 02:46:28;;;;;;;11.23;3.43;;;12.80;99.90;;;;;;5036783;28;20420;-71
2024/04/05 02:48:54;;;;;;;8.40;2.87;;;12.80;99.90;;;;;;5036598;28;21188;-67
2024/04/05 02:51:20;;;;;;;9.93;3.20;;;12.80;99.90;;;;;;5036403;28;20174;-70
2024/04/05 02:53:46;;;;;;;7.40;3.03;;;12.80;99.90;;;;;;5036109;28;20509;-73
2024/04/05 02:56:14;;;;;;;8.80;3.13;;;12.80;99.90;;;;;;5035924;28;20197;-71
2024/04/05 02:58:40;;;;;;;10.83;3.50;;;12.80;99.90;;;;;;5034256;28;20798;-72
2024/04/05 03:01:05;;;;;;;8.13;2.77;;;12.80;99.90;;;;;;5035856;28;20468;-71
2024/04/05 03:03:31;;;;;;;10.60;3.33;;;12.80;99.90;;;;;;5036359;28;20503;-71
2024/04/05 03:05:57;;;;;;;8.00;3.20;;;12.80;99.90;;;;;;5034799;28;20204;-73
2024/04/05 03:08:23;;;;;;;7.07;2.97;;;12.80;99.90;;;;;;5067834;28;20225;-72
2024/04/05 03:10:48;;;;;;;8.90;2.97;;;12.90;99.90;;;;;;5035880;28;20189;-72
2024/04/05 03:13:14;;;;;;;8.03;3.00;;;12.90;99.90;;;;;;5035950;28;20232;-73
2024/04/05 03:15:40;;;;;;;8.60;2.70;;;12.90;99.90;;;;;;5035679;28;20584;-70
2024/04/05 03:18:06;;;;;;;8.80;3.00;;;12.90;99.90;;;;;;5035681;28;20189;-73
2024/04/05 03:20:32;;;;;;;10.37;3.20;;;12.90;99.90;;;;;;5035858;28;20221;-70
2024/04/05 03:22:58;;;;;;;12.20;3.73;;;12.90;99.90;;;;;;5035832;28;20424;-69
2024/04/05 03:25:23;;;;;;;7.70;2.97;;;12.90;99.90;;;;;;5036285;28;20431;-69
2024/04/05 03:27:49;;;;;;;15.33;3.70;;;12.90;99.90;;;;;;5035296;28;20532;-70
2024/04/05 03:30:15;;;;;;;9.20;3.57;;;12.90;99.90;;;;;;5036121;28;20178;-67
2024/04/05 03:32:41;;;;;;;9.53;3.10;;;13.00;99.90;;;;;;5035965;28;20791;-70
2024/04/05 03:35:07;;;;;;;10.20;3.27;;;13.10;99.90;;;;;;5035468;28;20430;-73
2024/04/05 03:37:33;;;;;;;6.67;2.80;;;13.10;99.90;;;;;;5067038;28;20202;-70
2024/04/05 03:40:00;;;;;;;11.03;3.67;;;13.10;99.90;;;;;;5035358;28;20457;-70
2024/04/05 03:42:25;;;;;;;9.57;2.43;;;13.10;99.90;;;;;;5035524;28;20524;-67
2024/04/05 03:44:51;;;;;;;6.20;2.73;;;13.10;99.90;;;;;;5035431;28;20962;-72
2024/04/05 03:47:17;;;;;;;7.17;2.73;;;13.10;99.90;;;;;;5035443;28;20186;-72
2024/04/05 03:49:42;;;;;;;8.13;2.90;;;13.20;99.90;;;;;;5036045;28;20597;-73
2024/04/05 03:52:08;;;;;;;8.17;3.00;;;13.20;99.90;;;;;;5035235;28;20186;-69
2024/04/05 03:54:34;;;;;;;4.03;3.17;;;13.20;99.90;;;;;;5035064;28;20190;-73
2024/04/05 03:57:00;;;;;;;9.23;3.40;;;13.20;99.90;;;;;;5035950;28;20181;-73
2024/04/05 03:59:28;;;;;;;6.60;2.43;;;13.20;99.90;;;;;;5034777;28;20429;-71
2024/04/05 04:01:54;;;;;;;7.63;2.87;;;13.20;99.90;;;;;;5034908;28;20214;-72
2024/04/05 04:04:21;;;;;;;6.70;2.67;;;13.20;99.90;;;;;;5035049;28;20435;-69
2024/04/05 04:06:47;;;;;;;5.97;2.63;;;13.20;99.90;;;;;;5034569;28;20475;-73
2024/04/05 04:09:15;;;;;;;5.53;2.53;;;13.20;99.90;;;;;;5035420;28;20433;-70
2024/04/05 04:11:42;;;;;;;11.17;3.47;;;13.20;99.90;;;;;;5035237;28;20481;-69
2024/04/05 04:14:08;;;;;;;5.70;3.00;;;13.20;99.90;;;;;;5034826;28;20819;-71
2024/04/05 04:16:34;;;;;;;9.07;2.77;;;13.20;99.90;;;;;;5034798;28;20433;-69
2024/04/05 04:19:00;;;;;;;11.20;2.70;;;13.20;99.90;;;;;;5035347;28;20431;-70
2024/04/05 04:21:26;;;;;;;10.73;2.70;;;13.20;99.90;;;;;;5034329;28;20469;-72
2024/04/05 04:23:52;;;;;;;7.53;2.97;;;13.20;99.90;;;;;;5034666;28;20297;-72
2024/04/05 04:26:20;;;;;;;7.53;2.80;;;13.10;99.90;;;;;;5034420;28;20181;-69
2024/04/05 04:28:47;;;;;;;7.70;3.07;;;13.20;99.90;;;;;;5031767;28;20433;-70
2024/04/05 04:31:22;;;;;;;6.53;2.80;;;13.20;99.90;;;;;;5034871;28;20858;-69
2024/04/05 04:33:49;;;;;;;7.70;3.07;;;13.20;99.90;;;;;;5031067;28;20541;-72
2024/04/05 04:36:15;;;;;;;11.83;2.70;;;13.20;99.90;;;;;;5034850;28;20429;-68
2024/04/05 04:38:41;;;;;;;7.83;2.87;;;13.20;99.90;;;;;;5034012;28;20432;-69
2024/04/05 04:41:06;;;;;;;8.90;2.87;;;13.20;99.90;;;;;;5034210;28;20222;-70
2024/04/05 04:43:32;;;;;;;6.77;3.10;;;13.20;99.90;;;;;;5033033;28;20448;-68
2024/04/05 04:45:58;;;;;;;7.83;2.73;;;13.20;99.90;;;;;;5034449;28;20194;-73
2024/04/05 04:48:27;;;;;;;8.37;3.60;;;13.20;99.90;;;;;;5033782;28;20189;-72
2024/04/05 04:50:53;;;;;;;5.33;2.67;;;13.30;99.90;;;;;;5035335;28;20997;-71
2024/04/05 04:53:19;;;;;;;9.20;3.17;;;13.30;99.90;;;;;;5034521;28;20754;-71
2024/04/05 04:55:45;;;;;;;9.90;3.00;;;13.30;99.90;;;;;;5034092;28;20429;-72
2024/04/05 04:58:16;;;;;;;5.10;2.60;;;13.30;99.90;;;;;;5035180;28;20431;-71
2024/04/05 05:00:45;;;;;;;5.50;2.30;;;13.30;99.90;;;;;;5034271;28;20715;-71
2024/04/05 05:03:11;;;;;;;6.27;2.53;;;13.30;99.90;;;;;;5034730;28;20447;-74
2024/04/05 05:05:38;;;;;;;6.10;2.93;;;13.30;99.90;;;;;;5033626;28;20437;-70
2024/04/05 05:08:04;;;;;;;6.63;3.17;;;13.30;99.90;;;;;;5034369;28;20208;-71
2024/04/05 05:10:30;;;;;;;8.20;3.30;;;13.30;99.90;;;;;;5033487;28;20428;-72
2024/04/05 05:12:56;;;;;;;6.43;3.37;;;13.30;99.90;;;;;;5033722;28;20459;-72
2024/04/05 05:15:21;;;;;;;7.30;2.40;;;13.30;99.90;;;;;;5035375;28;20431;-72
2024/04/05 05:17:47;;;;;;;5.57;2.37;;;13.30;99.90;;;;;;5067976;28;20227;-74
2024/04/05 05:20:16;;;;;;;9.77;3.60;;;13.30;99.90;;;;;;5036483;28;20190;-70
2024/04/05 05:22:43;;;;;;;5.77;2.80;;;13.30;99.90;;;;;;5034112;28;20529;-72
2024/04/05 05:25:08;;;;;;;12.93;3.40;;;13.30;99.90;;;;;;5034393;28;20534;-70
2024/04/05 05:27:34;;;;;;;8.63;2.40;;;13.30;99.90;;;;;;5033066;28;20425;-74
2024/04/05 05:30:00;;;;;;;10.23;2.50;;;13.20;99.90;;;;;;5034362;28;20269;-72
2024/04/05 05:32:26;;;;;;;8.80;3.50;;;13.20;99.90;;;;;;5032409;28;20187;-70
2024/04/05 05:34:51;;;;;;;9.50;3.30;;;13.20;99.90;;;;;;5035067;28;20182;-71
2024/04/05 05:37:17;;;;;;;7.50;2.90;;;13.20;99.90;;;;;;5036491;28;20190;-67
2024/04/05 05:39:43;;;;;;;9.17;3.70;;;13.20;99.90;;;;;;5069021;28;20718;-70
2024/04/05 05:42:09;;;;;;;7.70;3.07;;;13.10;99.90;;;;;;5037510;28;20237;-71
2024/04/05 05:44:35;;;;;;;7.83;3.73;;;13.10;99.90;;;;;;5037106;28;20421;-72
2024/04/05 05:47:00;;;;;;;5.73;2.90;;;13.10;99.90;;;;;;5037790;28;20186;-72
2024/04/05 05:49:26;;;;;;;9.07;2.80;;;13.10;99.90;;;;;;5034127;28;20182;-73
2024/04/05 05:51:52;;;;;;;4.57;2.57;;;13.00;99.90;;;;;;5037694;28;20280;-72
2024/04/05 05:54:19;;;;;;;8.83;2.60;;;13.00;99.90;;;;;;5037464;28;20182;-69
2024/04/05 05:56:45;;;;;;;7.07;2.80;;;13.00;99.90;;;;;;5037563;28;20433;-72
2024/04/05 05:59:11;;;;;;;6.97;3.13;;;12.90;99.90;;;;;;5037277;28;20459;-73
2024/04/05 06:01:37;;;;;;;6.27;4.80;;;12.90;99.90;;;;;;5066447;28;20494;-68
2024/04/05 06:04:03;;;;;;;5.47;4.23;;;12.80;99.90;;;;;;5037999;28;20432;-69
2024/04/05 06:06:29;;;;;;;6.83;3.07;;;12.80;99.90;;;;;;5034730;28;20209;-69
2024/04/05 06:08:55;;;;;;;6.57;3.20;;;12.90;99.90;;;;;;5036006;28;20518;-71
2024/04/05 06:11:22;;;;;;;10.73;3.10;;;12.90;99.90;;;;;;5035988;28;20496;-68
2024/04/05 06:13:48;;;;;;;6.80;3.37;;;12.90;99.90;;;;;;5037196;28;20433;-69
2024/04/05 06:16:14;;;;;;;9.83;3.40;;;12.90;99.90;;;;;;5038259;28;20528;-69
2024/04/05 06:18:45;;;;;;;5.10;3.10;;;12.90;99.90;;;;;;5037672;28;20512;-67
2024/04/05 06:21:11;;;;;;;6.27;3.20;;;12.90;99.90;;;;;;5038840;28;20202;-70
2024/04/05 06:23:36;;;;;;;7.30;3.30;;;13.00;99.90;;;;;;5037860;28;20424;-71
2024/04/05 06:26:03;;;;;;;6.70;3.40;;;13.00;99.90;;;;;;5037405;28;20190;-72
2024/04/05 06:28:29;;;;;;;7.40;3.10;;;13.10;99.90;;;;;;5036265;28;20182;-73
2024/04/05 06:30:55;;;;;;;8.97;3.33;;;13.10;99.90;;;;;;5037003;28;20439;-69
2024/04/05 06:33:20;;;;;;;6.20;3.07;;;13.20;99.90;;;;;;5036475;28;20641;-70
2024/04/05 06:35:46;;;;;;;6.23;2.87;;;13.20;99.90;;;;;;5036859;28;20240;-70
2024/04/05 06:38:11;;;;;;;8.50;2.90;;;13.20;99.90;;;;;;5036428;28;20190;-72
2024/04/05 06:40:39;;;;;;;10.53;3.10;;;13.20;99.90;;;;;;5035838;28;20210;-71
2024/04/05 06:43:06;;;;;;;7.60;2.97;;;13.20;99.90;;;;;;5036372;28;20186;-72
2024/04/05 06:45:32;;;;;;;5.17;2.50;;;13.20;99.90;;;;;;5035630;28;20428;-68
2024/04/05 06:48:01;;;;;;;8.43;3.30;;;13.30;99.90;;;;;;5036289;28;20492;-73
2024/04/05 06:50:30;;;;;;;10.17;3.30;;;13.50;99.90;;;;;;5034854;28;20457;-71
2024/04/05 06:52:58;;;;;;;6.33;2.23;;;13.60;99.90;;;;;;5036359;28;20514;-68
2024/04/05 06:55:23;;;;;;;8.43;2.60;;;13.70;99.90;;;;;;5035096;28;20424;-73
2024/04/05 06:57:51;;;;;;;8.03;2.77;;;13.70;99.90;;;;;;5037362;28;20421;-71
2024/04/05 07:00:17;;;;;;;7.63;3.40;;;13.70;99.90;;;;;;5036175;28;20186;-69
2024/04/05 07:02:42;;;;;;;3.33;3.03;;;13.70;99.90;;;;;;5036440;28;20432;-70
2024/04/05 07:05:08;;;;;;;4.37;2.33;;;13.70;99.90;;;;;;5035541;28;20194;-72
2024/04/05 07:07:34;;;;;;;8.07;2.50;;;13.70;99.90;;;;;;5034978;28;20382;-70
2024/04/05 07:10:00;;;;;;;7.13;2.70;;;13.70;99.90;;;;;;5037817;28;20503;-68
2024/04/05 07:12:25;;;;;;;8.10;2.70;;;13.70;99.90;;;;;;5034901;28;20530;-71
2024/04/05 07:14:51;;;;;;;4.90;2.60;;;13.70;99.90;;;;;;5035616;28;20296;-70
2024/04/05 07:17:17;;;;;;;8.53;3.10;;;13.80;99.90;;;;;;5034884;28;20193;-71
2024/04/05 07:19:42;;;;;;;5.03;2.50;;;13.90;99.90;;;;;;5067964;28;20651;-69
2024/04/05 07:22:09;;;;;;;6.30;3.33;;;13.90;99.90;;;;;;5035489;28;20229;-72
2024/04/05 07:24:35;;;;;;;6.10;2.57;;;13.90;99.90;;;;;;5034849;28;20255;-70
2024/04/05 07:27:01;;;;;;;5.23;2.40;;;13.90;99.90;;;;;;5035333;28;20511;-71
2024/04/05 07:29:27;;;;;;;5.97;2.20;;;13.90;99.90;;;;;;5034317;28;21124;-69
2024/04/05 07:31:53;;;;;;;9.50;2.50;;;14.00;99.90;;;;;;5034280;28;20185;-71
2024/04/05 07:34:19;;;;;;;8.50;2.83;;;14.00;99.90;;;;;;5034908;28;20189;-69
2024/04/05 07:36:45;;;;;;;4.57;2.80;;;14.00;99.90;;;;;;5035813;28;20432;-71
2024/04/05 07:39:12;;;;;;;6.20;2.97;;;14.00;99.90;;;;;;5034522;28;20647;-71
2024/04/05 07:41:38;;;;;;;7.27;2.33;;;14.00;99.90;;;;;;5034489;28;20905;-69
2024/04/05 07:44:04;;;;;;;7.30;2.37;;;14.10;99.90;;;;;;5035279;28;20561;-72
2024/04/05 07:46:29;;;;;;;7.83;2.30;;;14.10;99.90;;;;;;5033703;28;20528;-68
2024/04/05 07:48:55;;;;;;;5.37;2.57;;;14.10;99.90;;;;;;5035743;28;20441;-67
2024/04/05 07:51:21;;;;;;;9.17;2.20;;;14.10;99.90;;;;;;5034339;28;20189;-74
2024/04/05 07:53:47;;;;;;;6.73;3.07;;;14.10;99.90;;;;;;5035220;28;20522;-68
2024/04/05 07:56:13;;;;;;;6.93;2.10;;;14.10;99.90;;;;;;5034320;28;20186;-71
2024/04/05 07:58:39;;;;;;;4.60;2.50;;;14.20;99.90;;;;;;5033616;28;20243;-68
2024/04/05 08:01:07;;;;;;;3.70;2.00;;;14.20;99.90;;;;;;5034015;28;20533;-67
2024/04/05 08:03:34;;;;;;;5.97;2.07;;;14.30;99.90;;;;;;5032946;28;20469;-70
2024/04/05 08:06:00;;;;;;;3.50;2.00;;;14.30;99.90;;;;;;5033374;28;20440;-70
2024/04/05 08:08:27;;;;;;;3.87;2.20;;;14.40;99.90;;;;;;5032381;28;20456;-73
2024/04/05 08:11:02;;;;;;;7.27;2.70;;;14.50;99.90;;;;;;5033915;28;20456;-71
2024/04/05 08:13:28;;;;;;;3.23;2.17;;;14.50;99.90;;;;;;5032776;28;20865;-71
2024/04/05 08:15:54;;;;;;;2.63;2.07;;;14.60;99.90;;;;;;5034017;28;20467;-68
2024/04/05 08:18:20;;;;;;;5.47;2.07;;;14.60;99.90;;;;;;5033296;28;21153;-69
2024/04/05 08:20:46;;;;;;;3.20;2.33;;;14.70;99.90;;;;;;5034781;28;20240;-70
2024/04/05 08:23:11;;;;;;;6.90;2.30;;;14.70;99.90;;;;;;5033757;28;20297;-70
2024/04/05 08:25:37;;;;;;;8.83;2.60;;;14.80;99.90;;;;;;5066516;28;20225;-73
2024/04/05 08:28:03;;;;;;;7.90;2.30;;;14.80;99.90;;;;;;5034862;28;20190;-68
2024/04/05 08:30:29;;;;;;;4.97;1.73;;;14.80;99.90;;;;;;5033495;28;20188;-74
2024/04/05 08:32:54;;;;;;;9.47;2.20;;;14.80;99.90;;;;;;5035019;28;20225;-74
2024/04/05 08:35:20;;;;;;;3.20;2.20;;;14.80;99.90;;;;;;5033614;28;20186;-74
2024/04/05 08:37:46;;;;;;;7.63;2.70;;;14.80;99.90;;;;;;5034978;28;20664;-70
2024/04/05 08:40:12;;;;;;;5.03;2.40;;;14.80;99.90;;;;;;5033630;28;20231;-68
2024/04/05 08:42:39;;;;;;;3.63;2.20;;;14.80;99.90;;;;;;5033043;28;20219;-72
2024/04/05 08:45:06;;;;;;;4.13;2.50;;;14.80;99.90;;;;;;5034883;28;20420;-70
2024/04/05 08:47:32;;;;;;;10.33;2.93;;;14.80;99.90;;;;;;5033355;28;20430;-73
2024/04/05 08:49:59;;;;;;;6.80;2.47;;;14.80;99.90;;;;;;5033812;28;20436;-70
2024/04/05 08:52:25;;;;;;;5.90;2.30;;;14.80;99.90;;;;;;5033291;28;20514;-70
2024/04/05 08:54:54;;;;;;;4.67;2.33;;;14.80;99.90;;;;;;5066333;28;20917;-73
2024/04/05 08:57:25;;;;;;;6.33;2.30;;;14.90;99.90;;;;;;5033362;28;20435;-67
2024/04/05 08:59:51;;;;;;;5.00;2.00;;;14.90;99.90;;;;;;5034176;28;20420;-71
2024/04/05 09:02:17;;;;;;;3.17;1.93;;;14.90;99.90;;;;;;5033759;28;20476;-72
2024/04/05 09:04:43;;;;;;;5.13;2.33;;;15.00;99.90;;;;;;5034809;28;20181;-70
2024/04/05 09:07:09;;;;;;;6.53;2.60;;;14.90;99.90;;;;;;5032851;28;20451;-68
2024/04/05 09:09:35;;;;;;;3.33;1.80;;;15.00;99.90;;;;;;5033791;28;21071;-68
2024/04/05 09:12:03;;;;;;;5.97;2.20;;;15.00;99.90;;;;;;5043174;28;20451;-72
2024/04/05 09:14:36;;;;;;;4.77;2.33;;;15.00;99.90;;;;;;5037104;28;20213;-74
2024/04/05 09:17:11;;;;;;;8.63;2.30;;;15.00;99.90;;;;;;5038001;28;20459;-71
2024/04/05 09:19:37;;;;;;;4.50;1.77;;;15.00;99.90;;;;;;5037578;28;20827;-71
2024/04/05 09:22:04;;;;;;;4.60;1.90;;;15.00;99.90;;;;;;5037820;28;20468;-71
2024/04/05 09:24:30;;;;;;;4.73;1.70;;;15.00;99.90;;;;;;5037367;28;20197;-71
2024/04/05 09:27:08;;;;;;;4.57;2.47;;;15.10;99.90;;;;;;5037413;28;20428;-69
2024/04/05 09:29:34;;;;;;;4.40;2.17;;;15.10;99.90;;;;;;5036682;28;20439;-72
2024/04/05 09:31:59;;;;;;;4.50;1.80;;;15.10;99.90;;;;;;5036793;28;20801;-67
2024/04/05 09:34:29;;;;;;;3.27;1.63;;;15.20;99.90;;;;;;5035722;28;20179;-72
2024/04/05 09:36:58;;;;;;;4.00;1.93;;;15.20;99.90;;;;;;5037013;28;20254;-70
2024/04/05 09:39:24;;;;;;;6.00;2.50;;;15.20;99.90;;;;;;5035791;28;20429;-72
2024/04/05 09:41:56;;;;;;;5.23;2.20;;;15.30;99.90;;;;;;5036631;28;20478;-71
2024/04/05 09:44:23;;;;;;;4.73;2.13;;;15.30;99.90;;;;;;5036527;28;20817;-67
2024/04/05 09:46:49;;;;;;;7.43;1.90;;;15.40;99.90;;;;;;5036577;28;20432;-69
2024/04/05 09:49:14;;;;;;;4.07;2.00;;;15.40;99.90;;;;;;5035298;28;20433;-74
2024/04/05 09:51:48;;;;;;;2.77;1.60;;;15.40;99.90;;;;;;5036052;28;20428;-72
2024/04/05 09:54:16;;;;;;;2.73;1.70;;;15.50;99.90;;;;;;5035624;28;20205;-72
2024/04/05 09:56:43;;;;;;;5.67;2.00;;;15.60;99.90;;;;;;5036512;28;20486;-70
2024/04/05 09:59:27;;;;;;;4.93;2.10;;;15.60;99.90;;;;;;5035390;28;20432;-71
2024/04/05 10:01:53;;;;;;;2.70;1.30;;;15.70;99.90;;;;;;5068262;28;20473;-70
2024/04/05 10:04:19;;;;;;;3.73;1.93;;;15.70;99.90;;;;;;5035667;28;21252;-70
2024/04/05 10:06:45;;;;;;;7.23;2.10;;;15.70;99.90;;;;;;5036205;28;20445;-70
2024/04/05 10:09:18;;;;;;;2.70;2.00;;;15.80;99.90;;;;;;5035616;28;20182;-68
2024/04/05 10:11:45;;;;;;;4.73;1.60;;;15.70;99.90;;;;;;5034871;28;20436;-68
2024/04/05 10:14:20;;;;;;;3.87;1.83;;;15.70;99.90;;;;;;5035395;28;20431;-72
2024/04/05 10:16:46;;;;;;;3.67;1.77;;;15.80;99.90;;;;;;5035530;28;20942;-68
2024/04/05 10:19:12;;;;;;;3.37;1.63;;;15.80;99.90;;;;;;5035256;28;21493;-71
2024/04/05 10:21:38;;;;;;;4.20;1.80;;;15.70;99.90;;;;;;5034985;28;20540;-71
2024/04/05 10:24:07;;;;;;;3.30;1.40;;;15.80;99.90;;;;;;5035614;28;21147;-67
2024/04/05 10:26:36;;;;;;;2.57;1.70;;;15.80;99.90;;;;;;5036133;28;20183;-73
2024/04/05 10:29:04;;;;;;;4.30;2.60;;;15.80;99.90;;;;;;5035736;28;20481;-72
2024/04/05 10:31:34;;;;;;;3.57;1.77;;;15.70;99.90;;;;;;5035589;28;20967;-68
2024/04/05 10:34:03;;;;;;;3.53;1.60;;;15.70;99.90;;;;;;5035935;28;20463;-69
2024/04/05 10:36:32;;;;;;;1.90;1.60;;;15.70;99.90;;;;;;5034820;28;20531;-71
2024/04/05 10:39:00;;;;;;;2.73;2.47;;;15.70;99.90;;;;;;5034853;28;20489;-71
2024/04/05 10:41:26;;;;;;;5.87;2.47;;;15.70;99.90;;;;;;5034903;28;20465;-71
2024/04/05 10:44:04;;;;;;;3.30;1.80;;;15.70;99.90;;;;;;5035975;28;20473;-70
2024/04/05 10:46:31;;;;;;;3.13;1.70;;;15.70;99.90;;;;;;5035248;28;20505;-68
2024/04/05 10:49:00;;;;;;;2.67;1.80;;;15.80;99.90;;;;;;5034647;28;20493;-71
2024/04/05 10:51:27;;;;;;;4.40;1.80;;;15.80;99.90;;;;;;5034726;28;20433;-72
2024/04/05 10:53:54;;;;;;;3.17;1.60;;;15.90;99.90;;;;;;5035319;28;20425;-72
2024/04/05 10:56:20;;;;;;;2.70;2.17;;;15.80;99.90;;;;;;5034251;28;20421;-73
2024/04/05 10:58:46;;;;;;;4.33;1.83;;;15.90;99.90;;;;;;5034947;28;20520;-70
2024/04/05 11:01:13;;;;;;;6.30;1.87;;;15.90;99.90;;;;;;5034308;28;21201;-70
2024/04/05 11:03:39;;;;;;;3.50;1.60;;;15.90;99.90;;;;;;5035423;28;20424;-68
2024/04/05 11:06:05;;;;;;;4.20;2.20;;;16.00;99.90;;;;;;5036174;28;20440;-72
2024/04/05 11:08:32;;;;;;;2.97;1.60;;;16.00;99.90;;;;;;5038501;28;20421;-70
2024/04/05 11:10:58;;;;;;;4.10;2.23;;;15.90;99.90;;;;;;5036973;28;20431;-69
2024/04/05 11:13:26;;;;;;;4.07;2.20;;;15.90;99.90;;;;;;5035338;28;20589;-68
2024/04/05 11:16:04;;;;;;;3.27;1.63;;;15.90;99.90;;;;;;5034849;28;20497;-69
2024/04/05 11:18:37;;;;;;;4.63;2.00;;;15.90;99.90;;;;;;5034417;28;20971;-71
2024/04/05 11:21:04;;;;;;;5.97;2.20;;;15.90;99.90;;;;;;5065333;28;21005;-69
2024/04/05 11:23:29;;;;;;;3.00;1.70;;;15.90;99.90;;;;;;5034475;28;20474;-72
2024/04/05 11:25:56;;;;;;;4.53;2.30;;;15.90;99.90;;;;;;5034103;28;20898;-71
2024/04/05 11:28:23;;;;;;;4.90;2.83;;;15.90;99.90;;;;;;5034449;28;20186;-70
2024/04/05 11:30:49;;;;;;;2.97;1.80;;;15.90;99.90;;;;;;5034294;28;20436;-72
2024/04/05 11:33:15;;;;;;;3.13;2.00;;;15.90;99.90;;;;;;5035604;28;21199;-69
2024/04/05 11:35:43;;;;;;;3.80;1.97;;;16.00;99.90;;;;;;5034730;28;20467;-70
2024/04/05 11:38:09;;;;;;;5.67;1.80;;;16.10;99.90;;;;;;5033271;28;20221;-69
2024/04/05 11:40:34;;;;;;;3.03;1.63;;;16.20;99.90;;;;;;5034077;28;20867;-73
2024/04/05 11:43:01;;;;;;;5.00;2.10;;;16.30;99.90;;;;;;5032674;28;20190;-70
2024/04/05 11:45:26;;;;;;;3.03;2.07;;;16.50;99.90;;;;;;5033091;28;20194;-72
2024/04/05 11:47:54;;;;;;;3.43;1.87;;;16.60;99.90;;;;;;5032517;28;20500;-69
2024/04/05 11:50:20;;;;;;;3.83;1.77;;;16.60;99.90;;;;;;5032618;28;20177;-70
2024/04/05 11:52:46;;;;;;;4.50;1.93;;;16.60;99.90;;;;;;5032777;28;20439;-72
2024/04/05 11:55:11;;;;;;;4.00;1.53;;;16.50;99.90;;;;;;5032311;28;20193;-72
2024/04/05 11:57:37;;;;;;;2.00;1.80;;;16.50;99.90;;;;;;5032377;28;20194;-72
2024/04/05 12:00:13;;;;;;;3.17;1.80;;;16.50;99.90;;;;;;5032091;28;20183;-68
2024/04/05 12:02:41;;;;;;;3.00;2.03;;;16.50;99.90;;;;;;5033197;28;20278;-71
2024/04/05 12:05:11;;;;;;;3.53;1.87;;;16.50;99.90;;;;;;5032986;28;20796;-73
2024/04/05 12:07:37;;;;;;;4.13;2.10;;;16.50;99.90;;;;;;5033646;28;20452;-70
2024/04/05 12:10:03;;;;;;;2.80;2.00;;;16.60;99.90;;;;;;5033767;28;20552;-70
2024/04/05 12:12:30;;;;;;;2.50;1.83;;;16.60;99.90;;;;;;5033787;28;20989;-73
2024/04/05 12:14:57;;;;;;;5.37;1.80;;;16.60;99.90;;;;;;5033745;28;20441;-69
2024/04/05 12:17:23;;;;;;;6.50;2.17;;;16.60;99.90;;;;;;5033712;28;20424;-69
2024/04/05 12:19:49;;;;;;;3.63;2.30;;;16.70;99.90;;;;;;5033604;28;20428;-71
2024/04/05 12:22:15;;;;;;;4.40;1.90;;;16.80;99.90;;;;;;5033719;28;20457;-72
2024/04/05 12:24:40;;;;;;;3.10;1.60;;;16.80;99.90;;;;;;5033731;28;20722;-68
2024/04/05 12:27:06;;;;;;;3.00;2.20;;;16.90;99.90;;;;;;5032763;28;20190;-70
2024/04/05 12:29:32;;;;;;;3.07;1.93;;;16.90;99.90;;;;;;5031441;28;20191;-71
2024/04/05 12:31:57;;;;;;;3.67;1.67;;;16.90;99.90;;;;;;5033336;28;20178;-69
2024/04/05 12:34:23;;;;;;;5.93;2.00;;;16.80;99.90;;;;;;5034959;28;20560;-69
2024/04/05 12:36:50;;;;;;;4.47;2.00;;;16.80;99.90;;;;;;5033996;28;20311;-69
2024/04/05 12:39:25;;;;;;;2.00;1.73;;;16.80;99.90;;;;;;5033149;28;20185;-71
2024/04/05 12:41:53;;;;;;;3.07;1.63;;;16.80;99.90;;;;;;5033209;28;20478;-71